<?xml version="1.0" encoding="UTF-8" standalone="no" ?>
<gpx xmlns="http://www.topografix.com/GPX/1/1" xmlns:xsi="http://www.w3.org/2001/XMLSchema-instance" xsi:schemaLocation="http://www.topografix.com/GPX/1/1 http://www.topografix.com/GPX/1/1/gpx.xsd" version="1.1" creator="VisuGPX - https://www.visugpx.com">
  <metadata>
    <name>Sortie VTT Chartreuse</name>
    <desc><![CDATA[Essai]]></desc>
  </metadata>
  <trk>
    <name><![CDATA[Sortie VTT Chartreuse_3]]></name>
    <trkseg>
      <trkpt lat="45.37463" lon="5.78598">
        <ele>1287</ele>
        <time>2008-10-25T07:57:25Z</time>
      </trkpt>
      <trkpt lat="45.37469" lon="5.78617">
        <ele>1284</ele>
        <time>2008-10-25T07:57:31Z</time>
      </trkpt>
      <trkpt lat="45.37478" lon="5.78625">
        <ele>1284</ele>
        <time>2008-10-25T07:57:38Z</time>
      </trkpt>
      <trkpt lat="45.37499" lon="5.78628">
        <ele>1286</ele>
        <time>2008-10-25T07:57:54Z</time>
      </trkpt>
      <trkpt lat="45.37502" lon="5.78625">
        <ele>1287</ele>
        <time>2008-10-25T07:57:57Z</time>
      </trkpt>
      <trkpt lat="45.3753" lon="5.78585">
        <ele>1293</ele>
        <time>2008-10-25T07:58:29Z</time>
      </trkpt>
      <trkpt lat="45.37555" lon="5.78591">
        <ele>1296</ele>
        <time>2008-10-25T07:58:51Z</time>
      </trkpt>
      <trkpt lat="45.37562" lon="5.78595">
        <ele>1297</ele>
        <time>2008-10-25T07:58:58Z</time>
      </trkpt>
      <trkpt lat="45.37579" lon="5.78628">
        <ele>1298</ele>
        <time>2008-10-25T07:59:30Z</time>
      </trkpt>
      <trkpt lat="45.37583" lon="5.78634">
        <ele>1299</ele>
        <time>2008-10-25T07:59:59Z</time>
      </trkpt>
      <trkpt lat="45.37585" lon="5.78643">
        <ele>1301</ele>
        <time>2008-10-25T08:00:08Z</time>
      </trkpt>
      <trkpt lat="45.37587" lon="5.78664">
        <ele>1303</ele>
        <time>2008-10-25T08:00:23Z</time>
      </trkpt>
      <trkpt lat="45.376" lon="5.78694">
        <ele>1306</ele>
        <time>2008-10-25T08:00:45Z</time>
      </trkpt>
      <trkpt lat="45.37602" lon="5.78731">
        <ele>1307</ele>
        <time>2008-10-25T08:01:11Z</time>
      </trkpt>
      <trkpt lat="45.37607" lon="5.78735">
        <ele>1307</ele>
        <time>2008-10-25T08:01:17Z</time>
      </trkpt>
      <trkpt lat="45.37628" lon="5.78707">
        <ele>1313</ele>
        <time>2008-10-25T08:01:50Z</time>
      </trkpt>
      <trkpt lat="45.3763" lon="5.78679">
        <ele>1316</ele>
        <time>2008-10-25T08:02:10Z</time>
      </trkpt>
      <trkpt lat="45.37639" lon="5.78675">
        <ele>1319</ele>
        <time>2008-10-25T08:02:41Z</time>
      </trkpt>
      <trkpt lat="45.37641" lon="5.78686">
        <ele>1320</ele>
        <time>2008-10-25T08:03:09Z</time>
      </trkpt>
      <trkpt lat="45.37635" lon="5.78681">
        <ele>1319</ele>
        <time>2008-10-25T08:03:29Z</time>
      </trkpt>
      <trkpt lat="45.37648" lon="5.78688">
        <ele>1304</ele>
        <time>2008-10-25T08:05:53Z</time>
      </trkpt>
      <trkpt lat="45.37648" lon="5.78718">
        <ele>1311</ele>
        <time>2008-10-25T08:06:18Z</time>
      </trkpt>
      <trkpt lat="45.37654" lon="5.78744">
        <ele>1315</ele>
        <time>2008-10-25T08:06:47Z</time>
      </trkpt>
      <trkpt lat="45.37673" lon="5.78784">
        <ele>1320</ele>
        <time>2008-10-25T08:07:31Z</time>
      </trkpt>
      <trkpt lat="45.3768" lon="5.78784">
        <ele>1325</ele>
        <time>2008-10-25T08:07:48Z</time>
      </trkpt>
      <trkpt lat="45.37684" lon="5.78801">
        <ele>1327</ele>
        <time>2008-10-25T08:08:06Z</time>
      </trkpt>
      <trkpt lat="45.37688" lon="5.78806">
        <ele>1326</ele>
        <time>2008-10-25T08:08:27Z</time>
      </trkpt>
      <trkpt lat="45.37693" lon="5.78806">
        <ele>1329</ele>
        <time>2008-10-25T08:08:41Z</time>
      </trkpt>
      <trkpt lat="45.37712" lon="5.7881">
        <ele>1332</ele>
        <time>2008-10-25T08:09:12Z</time>
      </trkpt>
      <trkpt lat="45.37723" lon="5.78819">
        <ele>1333</ele>
        <time>2008-10-25T08:09:29Z</time>
      </trkpt>
      <trkpt lat="45.37725" lon="5.78823">
        <ele>1338</ele>
        <time>2008-10-25T08:10:03Z</time>
      </trkpt>
      <trkpt lat="45.37731" lon="5.78827">
        <ele>1338</ele>
        <time>2008-10-25T08:10:14Z</time>
      </trkpt>
      <trkpt lat="45.37759" lon="5.78851">
        <ele>1341</ele>
        <time>2008-10-25T08:10:43Z</time>
      </trkpt>
      <trkpt lat="45.37791" lon="5.78881">
        <ele>1347</ele>
        <time>2008-10-25T08:11:21Z</time>
      </trkpt>
      <trkpt lat="45.37813" lon="5.78887">
        <ele>1348</ele>
        <time>2008-10-25T08:11:45Z</time>
      </trkpt>
      <trkpt lat="45.37821" lon="5.78885">
        <ele>1346</ele>
        <time>2008-10-25T08:11:59Z</time>
      </trkpt>
      <trkpt lat="45.37849" lon="5.78945">
        <ele>1352</ele>
        <time>2008-10-25T08:12:48Z</time>
      </trkpt>
      <trkpt lat="45.37856" lon="5.78958">
        <ele>1354</ele>
        <time>2008-10-25T08:13:09Z</time>
      </trkpt>
      <trkpt lat="45.37864" lon="5.78971">
        <ele>1358</ele>
        <time>2008-10-25T08:13:26Z</time>
      </trkpt>
      <trkpt lat="45.37875" lon="5.78982">
        <ele>1361</ele>
        <time>2008-10-25T08:13:55Z</time>
      </trkpt>
      <trkpt lat="45.37894" lon="5.78999">
        <ele>1366</ele>
        <time>2008-10-25T08:14:30Z</time>
      </trkpt>
      <trkpt lat="45.37909" lon="5.79007">
        <ele>1370</ele>
        <time>2008-10-25T08:14:57Z</time>
      </trkpt>
      <trkpt lat="45.37937" lon="5.79016">
        <ele>1374</ele>
        <time>2008-10-25T08:15:32Z</time>
      </trkpt>
      <trkpt lat="45.37937" lon="5.79014">
        <ele>1376</ele>
        <time>2008-10-25T08:16:06Z</time>
      </trkpt>
      <trkpt lat="45.37933" lon="5.7901">
        <ele>1379</ele>
        <time>2008-10-25T08:17:05Z</time>
      </trkpt>
      <trkpt lat="45.37942" lon="5.79012">
        <ele>1380</ele>
        <time>2008-10-25T08:17:21Z</time>
      </trkpt>
      <trkpt lat="45.37942" lon="5.79016">
        <ele>1381</ele>
        <time>2008-10-25T08:18:07Z</time>
      </trkpt>
      <trkpt lat="45.37944" lon="5.79022">
        <ele>1378</ele>
        <time>2008-10-25T08:18:51Z</time>
      </trkpt>
      <trkpt lat="45.37957" lon="5.79048">
        <ele>1377</ele>
        <time>2008-10-25T08:19:03Z</time>
      </trkpt>
      <trkpt lat="45.37991" lon="5.79091">
        <ele>1381</ele>
        <time>2008-10-25T08:19:40Z</time>
      </trkpt>
      <trkpt lat="45.38017" lon="5.79128">
        <ele>1384</ele>
        <time>2008-10-25T08:20:12Z</time>
      </trkpt>
      <trkpt lat="45.3804" lon="5.79162">
        <ele>1388</ele>
        <time>2008-10-25T08:20:43Z</time>
      </trkpt>
      <trkpt lat="45.38064" lon="5.79201">
        <ele>1390</ele>
        <time>2008-10-25T08:21:15Z</time>
      </trkpt>
      <trkpt lat="45.38068" lon="5.79198">
        <ele>1391</ele>
        <time>2008-10-25T08:21:19Z</time>
      </trkpt>
      <trkpt lat="45.38077" lon="5.79186">
        <ele>1392</ele>
        <time>2008-10-25T08:21:29Z</time>
      </trkpt>
      <trkpt lat="45.38087" lon="5.79188">
        <ele>1395</ele>
        <time>2008-10-25T08:21:39Z</time>
      </trkpt>
      <trkpt lat="45.38098" lon="5.79192">
        <ele>1396</ele>
        <time>2008-10-25T08:21:48Z</time>
      </trkpt>
      <trkpt lat="45.38122" lon="5.79224">
        <ele>1399</ele>
        <time>2008-10-25T08:22:15Z</time>
      </trkpt>
      <trkpt lat="45.38135" lon="5.79243">
        <ele>1402</ele>
        <time>2008-10-25T08:22:32Z</time>
      </trkpt>
      <trkpt lat="45.38145" lon="5.79235">
        <ele>1405</ele>
        <time>2008-10-25T08:22:48Z</time>
      </trkpt>
      <trkpt lat="45.38158" lon="5.79231">
        <ele>1408</ele>
        <time>2008-10-25T08:23:06Z</time>
      </trkpt>
      <trkpt lat="45.38165" lon="5.79239">
        <ele>1409</ele>
        <time>2008-10-25T08:23:16Z</time>
      </trkpt>
      <trkpt lat="45.38182" lon="5.79265">
        <ele>1414</ele>
        <time>2008-10-25T08:23:57Z</time>
      </trkpt>
      <trkpt lat="45.38184" lon="5.79265">
        <ele>1416</ele>
        <time>2008-10-25T08:24:22Z</time>
      </trkpt>
      <trkpt lat="45.38199" lon="5.79269">
        <ele>1417</ele>
        <time>2008-10-25T08:24:44Z</time>
      </trkpt>
      <trkpt lat="45.38201" lon="5.79271">
        <ele>1416</ele>
        <time>2008-10-25T08:25:12Z</time>
      </trkpt>
      <trkpt lat="45.38193" lon="5.79269">
        <ele>1416</ele>
        <time>2008-10-25T08:25:21Z</time>
      </trkpt>
      <trkpt lat="45.38173" lon="5.79271">
        <ele>1411</ele>
        <time>2008-10-25T08:25:40Z</time>
      </trkpt>
      <trkpt lat="45.38173" lon="5.79271">
        <ele>1410</ele>
        <time>2008-10-25T08:25:56Z</time>
      </trkpt>
      <trkpt lat="45.38169" lon="5.7928">
        <ele>1408</ele>
        <time>2008-10-25T08:26:02Z</time>
      </trkpt>
      <trkpt lat="45.38169" lon="5.79284">
        <ele>1408</ele>
        <time>2008-10-25T08:26:05Z</time>
      </trkpt>
      <trkpt lat="45.3818" lon="5.7928">
        <ele>1409</ele>
        <time>2008-10-25T08:26:25Z</time>
      </trkpt>
      <trkpt lat="45.38173" lon="5.79301">
        <ele>1411</ele>
        <time>2008-10-25T08:26:45Z</time>
      </trkpt>
      <trkpt lat="45.38175" lon="5.79278">
        <ele>1428</ele>
        <time>2008-10-25T08:27:15Z</time>
      </trkpt>
      <trkpt lat="45.38173" lon="5.79276">
        <ele>1425</ele>
        <time>2008-10-25T08:27:30Z</time>
      </trkpt>
      <trkpt lat="45.38171" lon="5.79276">
        <ele>1425</ele>
        <time>2008-10-25T08:27:47Z</time>
      </trkpt>
      <trkpt lat="45.38178" lon="5.79271">
        <ele>1421</ele>
        <time>2008-10-25T08:28:15Z</time>
      </trkpt>
      <trkpt lat="45.38193" lon="5.79274">
        <ele>1418</ele>
        <time>2008-10-25T08:28:31Z</time>
      </trkpt>
      <trkpt lat="45.38208" lon="5.79278">
        <ele>1418</ele>
        <time>2008-10-25T08:28:55Z</time>
      </trkpt>
      <trkpt lat="45.3824" lon="5.79282">
        <ele>1418</ele>
        <time>2008-10-25T08:29:57Z</time>
      </trkpt>
      <trkpt lat="45.38255" lon="5.79284">
        <ele>1374</ele>
        <time>2008-10-25T08:30:31Z</time>
      </trkpt>
      <trkpt lat="45.38259" lon="5.79265">
        <ele>1392</ele>
        <time>2008-10-25T08:31:22Z</time>
      </trkpt>
    </trkseg>
  </trk>
</gpx>